sensor_id;sensor_type;location;lat;lon;timestamp;P1;durP1;ratioP1;P2;durP2;ratioP2
80233;SDS011;69712;42.142;24.766;2024-02-26T00:01:43;43.30;;;27.85;;
80233;SDS011;69712;42.142;24.766;2024-02-26T00:04:09;42.67;;;27.25;;
80233;SDS011;69712;42.142;24.766;2024-02-26T00:06:35;40.60;;;27.67;;
80233;SDS011;69712;42.142;24.766;2024-02-26T00:09:02;42.67;;;28.02;;
80233;SDS011;69712;42.142;24.766;2024-02-26T00:11:30;42.35;;;28.42;;
80233;SDS011;69712;42.142;24.766;2024-02-26T00:13:56;43.00;;;27.05;;
80233;SDS011;69712;42.142;24.766;2024-02-26T00:16:23;46.60;;;28.48;;
80233;SDS011;69712;42.142;24.766;2024-02-26T00:18:49;42.08;;;28.33;;
80233;SDS011;69712;42.142;24.766;2024-02-26T00:21:14;40.17;;;26.50;;
80233;SDS011;69712;42.142;24.766;2024-02-26T00:23:40;41.55;;;27.52;;
80233;SDS011;69712;42.142;24.766;2024-02-26T00:26:06;46.10;;;28.25;;
80233;SDS011;69712;42.142;24.766;2024-02-26T00:28:33;43.47;;;29.05;;
80233;SDS011;69712;42.142;24.766;2024-02-26T00:30:59;35.25;;;23.20;;
80233;SDS011;69712;42.142;24.766;2024-02-26T00:33:24;34.95;;;23.13;;
80233;SDS011;69712;42.142;24.766;2024-02-26T00:35:50;40.22;;;23.83;;
80233;SDS011;69712;42.142;24.766;2024-02-26T00:38:16;40.05;;;24.55;;
80233;SDS011;69712;42.142;24.766;2024-02-26T00:40:42;35.47;;;23.75;;
80233;SDS011;69712;42.142;24.766;2024-02-26T00:43:07;33.65;;;23.73;;
80233;SDS011;69712;42.142;24.766;2024-02-26T00:45:33;36.97;;;23.77;;
80233;SDS011;69712;42.142;24.766;2024-02-26T00:47:59;34.58;;;23.52;;
80233;SDS011;69712;42.142;24.766;2024-02-26T00:50:33;39.63;;;25.23;;
80233;SDS011;69712;42.142;24.766;2024-02-26T00:52:59;37.35;;;23.65;;
80233;SDS011;69712;42.142;24.766;2024-02-26T00:55:26;35.42;;;23.80;;
80233;SDS011;69712;42.142;24.766;2024-02-26T00:57:52;34.28;;;24.35;;
80233;SDS011;69712;42.142;24.766;2024-02-26T01:00:18;36.50;;;25.17;;
80233;SDS011;69712;42.142;24.766;2024-02-26T01:02:44;35.50;;;23.52;;
80233;SDS011;69712;42.142;24.766;2024-02-26T01:05:12;33.58;;;23.27;;
80233;SDS011;69712;42.142;24.766;2024-02-26T01:07:39;32.88;;;22.10;;
80233;SDS011;69712;42.142;24.766;2024-02-26T01:10:07;37.42;;;21.88;;
80233;SDS011;69712;42.142;24.766;2024-02-26T01:12:33;30.83;;;20.15;;
80233;SDS011;69712;42.142;24.766;2024-02-26T01:15:00;28.48;;;18.73;;
80233;SDS011;69712;42.142;24.766;2024-02-26T01:17:26;27.33;;;17.70;;
80233;SDS011;69712;42.142;24.766;2024-02-26T01:19:52;30.10;;;19.85;;
80233;SDS011;69712;42.142;24.766;2024-02-26T01:22:18;35.67;;;21.83;;
80233;SDS011;69712;42.142;24.766;2024-02-26T01:24:44;33.45;;;21.55;;
80233;SDS011;69712;42.142;24.766;2024-02-26T01:27:10;35.28;;;21.80;;
80233;SDS011;69712;42.142;24.766;2024-02-26T01:29:36;36.10;;;22.65;;
80233;SDS011;69712;42.142;24.766;2024-02-26T01:32:02;34.83;;;21.65;;
80233;SDS011;69712;42.142;24.766;2024-02-26T01:34:30;34.10;;;21.70;;
80233;SDS011;69712;42.142;24.766;2024-02-26T01:36:55;33.15;;;21.63;;
80233;SDS011;69712;42.142;24.766;2024-02-26T01:39:21;34.97;;;22.23;;
80233;SDS011;69712;42.142;24.766;2024-02-26T01:41:47;31.85;;;22.25;;
80233;SDS011;69712;42.142;24.766;2024-02-26T01:44:13;32.95;;;22.33;;
80233;SDS011;69712;42.142;24.766;2024-02-26T01:46:39;33.60;;;22.60;;
80233;SDS011;69712;42.142;24.766;2024-02-26T01:49:05;34.70;;;21.95;;
80233;SDS011;69712;42.142;24.766;2024-02-26T01:51:33;33.50;;;21.92;;
80233;SDS011;69712;42.142;24.766;2024-02-26T01:54:01;34.53;;;22.70;;
80233;SDS011;69712;42.142;24.766;2024-02-26T01:56:29;31.63;;;23.02;;
80233;SDS011;69712;42.142;24.766;2024-02-26T01:58:59;35.67;;;22.73;;
80233;SDS011;69712;42.142;24.766;2024-02-26T02:01:25;37.83;;;24.02;;
80233;SDS011;69712;42.142;24.766;2024-02-26T02:03:53;37.40;;;23.70;;
80233;SDS011;69712;42.142;24.766;2024-02-26T02:06:21;32.85;;;23.10;;
80233;SDS011;69712;42.142;24.766;2024-02-26T02:08:47;35.78;;;24.05;;
80233;SDS011;69712;42.142;24.766;2024-02-26T02:11:13;37.72;;;24.50;;
80233;SDS011;69712;42.142;24.766;2024-02-26T02:13:40;46.95;;;23.48;;
80233;SDS011;69712;42.142;24.766;2024-02-26T02:16:06;32.70;;;21.52;;
80233;SDS011;69712;42.142;24.766;2024-02-26T02:18:32;32.55;;;22.30;;
80233;SDS011;69712;42.142;24.766;2024-02-26T02:21:01;33.05;;;21.65;;
80233;SDS011;69712;42.142;24.766;2024-02-26T02:23:27;37.38;;;22.67;;
80233;SDS011;69712;42.142;24.766;2024-02-26T02:25:53;35.95;;;22.02;;
80233;SDS011;69712;42.142;24.766;2024-02-26T02:28:21;34.08;;;21.83;;
80233;SDS011;69712;42.142;24.766;2024-02-26T02:30:48;30.35;;;21.48;;
80233;SDS011;69712;42.142;24.766;2024-02-26T02:33:14;32.85;;;21.35;;
80233;SDS011;69712;42.142;24.766;2024-02-26T02:35:41;33.20;;;20.95;;
80233;SDS011;69712;42.142;24.766;2024-02-26T02:38:07;30.50;;;21.58;;
80233;SDS011;69712;42.142;24.766;2024-02-26T02:40:33;32.03;;;20.77;;
80233;SDS011;69712;42.142;24.766;2024-02-26T02:42:58;31.63;;;21.92;;
80233;SDS011;69712;42.142;24.766;2024-02-26T02:45:26;29.10;;;20.10;;
80233;SDS011;69712;42.142;24.766;2024-02-26T02:47:53;30.63;;;21.00;;
80233;SDS011;69712;42.142;24.766;2024-02-26T02:50:18;31.58;;;22.08;;
80233;SDS011;69712;42.142;24.766;2024-02-26T02:52:44;29.60;;;21.00;;
80233;SDS011;69712;42.142;24.766;2024-02-26T02:55:10;29.95;;;20.58;;
80233;SDS011;69712;42.142;24.766;2024-02-26T02:57:36;29.85;;;20.75;;
80233;SDS011;69712;42.142;24.766;2024-02-26T03:00:08;30.20;;;20.13;;
80233;SDS011;69712;42.142;24.766;2024-02-26T03:02:35;30.25;;;20.10;;
80233;SDS011;69712;42.142;24.766;2024-02-26T03:05:01;30.13;;;20.23;;
80233;SDS011;69712;42.142;24.766;2024-02-26T03:07:29;29.77;;;20.40;;
80233;SDS011;69712;42.142;24.766;2024-02-26T03:09:55;30.42;;;21.35;;
80233;SDS011;69712;42.142;24.766;2024-02-26T03:12:21;32.13;;;22.67;;
80233;SDS011;69712;42.142;24.766;2024-02-26T03:14:46;33.80;;;22.27;;
80233;SDS011;69712;42.142;24.766;2024-02-26T03:17:12;39.45;;;24.13;;
80233;SDS011;69712;42.142;24.766;2024-02-26T03:19:38;39.40;;;24.70;;
80233;SDS011;69712;42.142;24.766;2024-02-26T03:22:04;42.15;;;28.63;;
80233;SDS011;69712;42.142;24.766;2024-02-26T03:24:30;41.03;;;27.92;;
80233;SDS011;69712;42.142;24.766;2024-02-26T03:26:55;43.15;;;28.70;;
80233;SDS011;69712;42.142;24.766;2024-02-26T03:29:21;42.35;;;29.23;;
80233;SDS011;69712;42.142;24.766;2024-02-26T03:31:47;44.80;;;28.30;;
80233;SDS011;69712;42.142;24.766;2024-02-26T03:34:13;38.00;;;27.80;;
80233;SDS011;69712;42.142;24.766;2024-02-26T03:36:39;43.90;;;29.10;;
80233;SDS011;69712;42.142;24.766;2024-02-26T03:39:06;46.50;;;28.42;;
80233;SDS011;69712;42.142;24.766;2024-02-26T03:41:35;40.53;;;27.88;;
80233;SDS011;69712;42.142;24.766;2024-02-26T03:44:01;43.40;;;29.33;;
80233;SDS011;69712;42.142;24.766;2024-02-26T03:46:27;46.70;;;30.45;;
80233;SDS011;69712;42.142;24.766;2024-02-26T03:48:53;42.63;;;30.35;;
80233;SDS011;69712;42.142;24.766;2024-02-26T03:51:19;45.30;;;29.98;;
80233;SDS011;69712;42.142;24.766;2024-02-26T03:53:45;47.25;;;30.35;;
80233;SDS011;69712;42.142;24.766;2024-02-26T03:56:11;48.38;;;29.27;;
80233;SDS011;69712;42.142;24.766;2024-02-26T03:58:38;42.88;;;27.65;;
80233;SDS011;69712;42.142;24.766;2024-02-26T04:01:04;42.30;;;27.75;;
80233;SDS011;69712;42.142;24.766;2024-02-26T04:03:32;38.85;;;25.98;;
80233;SDS011;69712;42.142;24.766;2024-02-26T04:05:58;46.88;;;27.77;;
80233;SDS011;69712;42.142;24.766;2024-02-26T04:08:24;44.63;;;28.13;;
80233;SDS011;69712;42.142;24.766;2024-02-26T04:10:50;40.28;;;26.75;;
80233;SDS011;69712;42.142;24.766;2024-02-26T04:13:16;41.00;;;26.27;;
80233;SDS011;69712;42.142;24.766;2024-02-26T04:15:43;37.60;;;25.25;;
80233;SDS011;69712;42.142;24.766;2024-02-26T04:18:09;32.72;;;21.25;;
80233;SDS011;69712;42.142;24.766;2024-02-26T04:20:35;33.05;;;20.92;;
80233;SDS011;69712;42.142;24.766;2024-02-26T04:23:01;34.20;;;22.10;;
80233;SDS011;69712;42.142;24.766;2024-02-26T04:25:28;28.33;;;19.40;;
80233;SDS011;69712;42.142;24.766;2024-02-26T04:27:54;30.98;;;19.75;;
80233;SDS011;69712;42.142;24.766;2024-02-26T04:30:19;26.55;;;17.58;;
80233;SDS011;69712;42.142;24.766;2024-02-26T04:32:45;25.95;;;17.63;;
80233;SDS011;69712;42.142;24.766;2024-02-26T04:35:11;27.70;;;17.55;;
80233;SDS011;69712;42.142;24.766;2024-02-26T04:37:37;27.17;;;17.40;;
80233;SDS011;69712;42.142;24.766;2024-02-26T04:40:03;28.05;;;17.40;;
80233;SDS011;69712;42.142;24.766;2024-02-26T04:42:29;26.00;;;16.65;;
80233;SDS011;69712;42.142;24.766;2024-02-26T04:44:55;23.45;;;15.95;;
80233;SDS011;69712;42.142;24.766;2024-02-26T04:47:21;24.05;;;15.68;;
80233;SDS011;69712;42.142;24.766;2024-02-26T04:49:48;21.65;;;15.75;;
80233;SDS011;69712;42.142;24.766;2024-02-26T04:52:15;19.70;;;14.55;;
80233;SDS011;69712;42.142;24.766;2024-02-26T04:54:40;22.08;;;14.10;;
80233;SDS011;69712;42.142;24.766;2024-02-26T04:57:06;23.38;;;13.93;;
80233;SDS011;69712;42.142;24.766;2024-02-26T04:59:32;23.30;;;14.13;;
80233;SDS011;69712;42.142;24.766;2024-02-26T05:01:58;19.20;;;13.90;;
80233;SDS011;69712;42.142;24.766;2024-02-26T05:04:23;19.85;;;13.90;;
80233;SDS011;69712;42.142;24.766;2024-02-26T05:06:49;20.65;;;13.45;;
80233;SDS011;69712;42.142;24.766;2024-02-26T05:09:15;23.23;;;14.50;;
80233;SDS011;69712;42.142;24.766;2024-02-26T05:11:41;23.30;;;14.30;;
80233;SDS011;69712;42.142;24.766;2024-02-26T05:14:07;19.25;;;12.93;;
80233;SDS011;69712;42.142;24.766;2024-02-26T05:16:33;23.98;;;12.65;;
80233;SDS011;69712;42.142;24.766;2024-02-26T05:18:59;19.45;;;13.50;;
80233;SDS011;69712;42.142;24.766;2024-02-26T05:21:25;18.45;;;12.82;;
80233;SDS011;69712;42.142;24.766;2024-02-26T05:23:50;18.45;;;12.45;;
80233;SDS011;69712;42.142;24.766;2024-02-26T05:26:22;19.13;;;12.80;;
80233;SDS011;69712;42.142;24.766;2024-02-26T05:28:48;20.42;;;12.30;;
80233;SDS011;69712;42.142;24.766;2024-02-26T05:31:15;20.08;;;12.35;;
80233;SDS011;69712;42.142;24.766;2024-02-26T05:33:41;18.58;;;11.85;;
80233;SDS011;69712;42.142;24.766;2024-02-26T05:36:07;18.58;;;12.15;;
80233;SDS011;69712;42.142;24.766;2024-02-26T05:38:33;19.00;;;11.93;;
80233;SDS011;69712;42.142;24.766;2024-02-26T05:40:59;19.40;;;12.57;;
80233;SDS011;69712;42.142;24.766;2024-02-26T05:43:25;18.90;;;12.20;;
80233;SDS011;69712;42.142;24.766;2024-02-26T05:45:51;19.45;;;13.50;;
80233;SDS011;69712;42.142;24.766;2024-02-26T05:48:18;16.83;;;12.65;;
80233;SDS011;69712;42.142;24.766;2024-02-26T05:50:44;20.35;;;12.85;;
80233;SDS011;69712;42.142;24.766;2024-02-26T05:53:11;23.52;;;13.70;;
80233;SDS011;69712;42.142;24.766;2024-02-26T05:55:36;26.92;;;12.88;;
80233;SDS011;69712;42.142;24.766;2024-02-26T05:58:03;19.83;;;12.57;;
80233;SDS011;69712;42.142;24.766;2024-02-26T06:00:29;17.83;;;12.07;;
80233;SDS011;69712;42.142;24.766;2024-02-26T06:02:54;19.65;;;12.50;;
80233;SDS011;69712;42.142;24.766;2024-02-26T06:05:20;20.95;;;13.02;;
80233;SDS011;69712;42.142;24.766;2024-02-26T06:07:46;21.23;;;12.98;;
80233;SDS011;69712;42.142;24.766;2024-02-26T06:10:12;18.00;;;12.80;;
80233;SDS011;69712;42.142;24.766;2024-02-26T06:12:39;24.83;;;12.60;;
80233;SDS011;69712;42.142;24.766;2024-02-26T06:15:05;26.15;;;12.40;;
80233;SDS011;69712;42.142;24.766;2024-02-26T06:17:31;20.15;;;12.75;;
80233;SDS011;69712;42.142;24.766;2024-02-26T06:19:57;18.65;;;12.50;;
80233;SDS011;69712;42.142;24.766;2024-02-26T06:22:24;24.92;;;13.07;;
80233;SDS011;69712;42.142;24.766;2024-02-26T06:24:50;18.88;;;12.77;;
80233;SDS011;69712;42.142;24.766;2024-02-26T06:27:16;19.75;;;12.75;;
80233;SDS011;69712;42.142;24.766;2024-02-26T06:29:42;24.15;;;13.32;;
80233;SDS011;69712;42.142;24.766;2024-02-26T06:32:08;21.95;;;13.70;;
80233;SDS011;69712;42.142;24.766;2024-02-26T06:34:34;22.08;;;13.55;;
80233;SDS011;69712;42.142;24.766;2024-02-26T06:37:00;20.15;;;13.70;;
80233;SDS011;69712;42.142;24.766;2024-02-26T06:39:25;20.73;;;13.68;;
80233;SDS011;69712;42.142;24.766;2024-02-26T06:41:51;24.25;;;14.57;;
80233;SDS011;69712;42.142;24.766;2024-02-26T06:46:51;23.05;;;13.38;;
80233;SDS011;69712;42.142;24.766;2024-02-26T06:49:16;19.98;;;13.65;;
80233;SDS011;69712;42.142;24.766;2024-02-26T06:51:42;24.27;;;14.02;;
80233;SDS011;69712;42.142;24.766;2024-02-26T06:54:08;22.90;;;14.30;;
80233;SDS011;69712;42.142;24.766;2024-02-26T06:56:34;20.30;;;14.65;;
80233;SDS011;69712;42.142;24.766;2024-02-26T06:59:00;22.15;;;14.23;;
80233;SDS011;69712;42.142;24.766;2024-02-26T07:01:26;23.08;;;14.45;;
80233;SDS011;69712;42.142;24.766;2024-02-26T07:03:52;24.30;;;14.50;;
80233;SDS011;69712;42.142;24.766;2024-02-26T07:06:17;21.90;;;13.82;;
80233;SDS011;69712;42.142;24.766;2024-02-26T07:08:43;22.42;;;14.13;;
80233;SDS011;69712;42.142;24.766;2024-02-26T07:11:10;23.13;;;14.07;;
80233;SDS011;69712;42.142;24.766;2024-02-26T07:13:36;30.05;;;15.20;;
80233;SDS011;69712;42.142;24.766;2024-02-26T07:16:02;21.45;;;14.65;;
80233;SDS011;69712;42.142;24.766;2024-02-26T07:18:28;24.13;;;14.68;;
80233;SDS011;69712;42.142;24.766;2024-02-26T07:20:54;24.33;;;15.07;;
80233;SDS011;69712;42.142;24.766;2024-02-26T07:23:20;22.73;;;15.60;;
80233;SDS011;69712;42.142;24.766;2024-02-26T07:25:46;22.85;;;14.95;;
80233;SDS011;69712;42.142;24.766;2024-02-26T07:28:14;24.67;;;15.52;;
80233;SDS011;69712;42.142;24.766;2024-02-26T07:30:40;22.70;;;15.63;;
80233;SDS011;69712;42.142;24.766;2024-02-26T07:33:05;25.40;;;15.65;;
80233;SDS011;69712;42.142;24.766;2024-02-26T07:35:32;26.63;;;16.70;;
80233;SDS011;69712;42.142;24.766;2024-02-26T07:37:58;23.17;;;15.80;;
80233;SDS011;69712;42.142;24.766;2024-02-26T07:40:24;24.58;;;16.23;;
80233;SDS011;69712;42.142;24.766;2024-02-26T07:42:50;26.65;;;16.75;;
80233;SDS011;69712;42.142;24.766;2024-02-26T07:45:16;31.45;;;18.45;;
80233;SDS011;69712;42.142;24.766;2024-02-26T07:47:45;26.88;;;16.98;;
80233;SDS011;69712;42.142;24.766;2024-02-26T07:50:11;23.88;;;16.67;;
80233;SDS011;69712;42.142;24.766;2024-02-26T07:52:37;26.17;;;16.80;;
80233;SDS011;69712;42.142;24.766;2024-02-26T07:55:04;27.30;;;17.38;;
80233;SDS011;69712;42.142;24.766;2024-02-26T07:57:31;36.60;;;21.58;;
80233;SDS011;69712;42.142;24.766;2024-02-26T08:00:00;43.42;;;26.17;;
80233;SDS011;69712;42.142;24.766;2024-02-26T08:02:26;36.47;;;22.75;;
80233;SDS011;69712;42.142;24.766;2024-02-26T08:04:51;47.70;;;25.80;;
80233;SDS011;69712;42.142;24.766;2024-02-26T08:07:17;40.22;;;26.60;;
80233;SDS011;69712;42.142;24.766;2024-02-26T08:09:43;44.00;;;25.30;;
80233;SDS011;69712;42.142;24.766;2024-02-26T08:12:09;41.78;;;26.90;;
80233;SDS011;69712;42.142;24.766;2024-02-26T08:14:34;43.28;;;25.48;;
80233;SDS011;69712;42.142;24.766;2024-02-26T08:17:00;39.45;;;25.10;;
80233;SDS011;69712;42.142;24.766;2024-02-26T08:19:26;44.22;;;26.30;;
80233;SDS011;69712;42.142;24.766;2024-02-26T08:21:52;43.58;;;29.15;;
80233;SDS011;69712;42.142;24.766;2024-02-26T08:24:18;43.58;;;28.55;;
80233;SDS011;69712;42.142;24.766;2024-02-26T08:26:44;38.10;;;24.98;;
80233;SDS011;69712;42.142;24.766;2024-02-26T08:29:10;41.30;;;23.73;;
80233;SDS011;69712;42.142;24.766;2024-02-26T08:31:36;32.38;;;19.88;;
80233;SDS011;69712;42.142;24.766;2024-02-26T08:34:03;34.42;;;18.95;;
80233;SDS011;69712;42.142;24.766;2024-02-26T08:36:33;35.95;;;19.23;;
80233;SDS011;69712;42.142;24.766;2024-02-26T08:38:59;34.38;;;20.95;;
80233;SDS011;69712;42.142;24.766;2024-02-26T08:41:25;32.53;;;21.20;;
80233;SDS011;69712;42.142;24.766;2024-02-26T08:43:51;34.20;;;21.67;;
80233;SDS011;69712;42.142;24.766;2024-02-26T08:46:17;34.08;;;21.85;;
80233;SDS011;69712;42.142;24.766;2024-02-26T08:48:42;34.38;;;21.30;;
80233;SDS011;69712;42.142;24.766;2024-02-26T08:51:09;32.15;;;21.80;;
80233;SDS011;69712;42.142;24.766;2024-02-26T08:53:35;34.05;;;21.30;;
80233;SDS011;69712;42.142;24.766;2024-02-26T08:56:02;28.65;;;20.65;;
80233;SDS011;69712;42.142;24.766;2024-02-26T08:58:28;33.60;;;20.02;;
80233;SDS011;69712;42.142;24.766;2024-02-26T09:00:54;30.75;;;19.95;;
80233;SDS011;69712;42.142;24.766;2024-02-26T09:03:20;30.77;;;20.27;;
80233;SDS011;69712;42.142;24.766;2024-02-26T09:05:46;32.88;;;20.35;;
80233;SDS011;69712;42.142;24.766;2024-02-26T09:08:12;28.70;;;20.25;;
80233;SDS011;69712;42.142;24.766;2024-02-26T09:10:39;29.70;;;20.48;;
80233;SDS011;69712;42.142;24.766;2024-02-26T09:13:05;33.83;;;20.85;;
80233;SDS011;69712;42.142;24.766;2024-02-26T09:15:31;31.30;;;19.85;;
80233;SDS011;69712;42.142;24.766;2024-02-26T09:17:57;31.23;;;19.58;;
80233;SDS011;69712;42.142;24.766;2024-02-26T09:20:23;29.08;;;19.63;;
80233;SDS011;69712;42.142;24.766;2024-02-26T09:22:49;28.77;;;18.23;;
80233;SDS011;69712;42.142;24.766;2024-02-26T09:25:15;26.08;;;17.23;;
80233;SDS011;69712;42.142;24.766;2024-02-26T09:27:44;25.08;;;17.42;;
80233;SDS011;69712;42.142;24.766;2024-02-26T09:30:11;25.23;;;17.63;;
80233;SDS011;69712;42.142;24.766;2024-02-26T09:32:38;34.00;;;18.35;;
80233;SDS011;69712;42.142;24.766;2024-02-26T09:35:05;23.75;;;17.00;;
80233;SDS011;69712;42.142;24.766;2024-02-26T09:37:32;25.73;;;16.50;;
80233;SDS011;69712;42.142;24.766;2024-02-26T09:39:58;28.65;;;16.42;;
80233;SDS011;69712;42.142;24.766;2024-02-26T09:42:27;30.70;;;17.70;;
80233;SDS011;69712;42.142;24.766;2024-02-26T09:44:57;29.83;;;19.30;;
80233;SDS011;69712;42.142;24.766;2024-02-26T09:47:31;30.15;;;19.15;;
80233;SDS011;69712;42.142;24.766;2024-02-26T09:49:58;33.97;;;20.40;;
80233;SDS011;69712;42.142;24.766;2024-02-26T09:52:26;35.05;;;20.90;;
80233;SDS011;69712;42.142;24.766;2024-02-26T09:54:56;30.70;;;20.33;;
80233;SDS011;69712;42.142;24.766;2024-02-26T09:57:22;32.85;;;21.25;;
80233;SDS011;69712;42.142;24.766;2024-02-26T09:59:50;29.92;;;20.27;;
80233;SDS011;69712;42.142;24.766;2024-02-26T10:02:18;31.60;;;20.45;;
80233;SDS011;69712;42.142;24.766;2024-02-26T10:04:45;28.98;;;19.15;;
80233;SDS011;69712;42.142;24.766;2024-02-26T10:07:13;31.30;;;20.05;;
80233;SDS011;69712;42.142;24.766;2024-02-26T10:09:39;25.42;;;16.48;;
80233;SDS011;69712;42.142;24.766;2024-02-26T10:12:06;25.92;;;17.63;;
80233;SDS011;69712;42.142;24.766;2024-02-26T10:14:35;23.20;;;16.27;;
80233;SDS011;69712;42.142;24.766;2024-02-26T10:17:01;29.70;;;17.05;;
80233;SDS011;69712;42.142;24.766;2024-02-26T10:19:28;30.17;;;17.75;;
80233;SDS011;69712;42.142;24.766;2024-02-26T10:21:58;21.85;;;15.57;;
80233;SDS011;69712;42.142;24.766;2024-02-26T10:24:26;29.67;;;16.30;;
80233;SDS011;69712;42.142;24.766;2024-02-26T10:26:52;29.50;;;15.90;;
80233;SDS011;69712;42.142;24.766;2024-02-26T10:29:20;24.25;;;15.73;;
80233;SDS011;69712;42.142;24.766;2024-02-26T10:31:46;26.70;;;16.08;;
80233;SDS011;69712;42.142;24.766;2024-02-26T10:34:13;23.15;;;15.18;;
80233;SDS011;69712;42.142;24.766;2024-02-26T10:36:40;21.65;;;15.40;;
80233;SDS011;69712;42.142;24.766;2024-02-26T10:39:06;24.08;;;15.93;;
80233;SDS011;69712;42.142;24.766;2024-02-26T10:41:33;26.90;;;15.18;;
80233;SDS011;69712;42.142;24.766;2024-02-26T10:43:59;23.75;;;14.68;;
80233;SDS011;69712;42.142;24.766;2024-02-26T10:46:25;24.17;;;14.10;;
80233;SDS011;69712;42.142;24.766;2024-02-26T10:48:52;22.63;;;15.18;;
80233;SDS011;69712;42.142;24.766;2024-02-26T10:51:26;20.70;;;14.20;;
80233;SDS011;69712;42.142;24.766;2024-02-26T10:53:57;24.05;;;14.30;;
80233;SDS011;69712;42.142;24.766;2024-02-26T10:56:25;22.30;;;14.38;;
80233;SDS011;69712;42.142;24.766;2024-02-26T10:58:55;27.00;;;15.13;;
80233;SDS011;69712;42.142;24.766;2024-02-26T11:01:22;24.20;;;15.80;;
80233;SDS011;69712;42.142;24.766;2024-02-26T11:03:50;23.85;;;15.60;;
80233;SDS011;69712;42.142;24.766;2024-02-26T11:06:17;25.00;;;15.02;;
80233;SDS011;69712;42.142;24.766;2024-02-26T11:08:47;24.50;;;18.20;;
80233;SDS011;69712;42.142;24.766;2024-02-26T11:11:14;21.65;;;17.10;;
80233;SDS011;69712;42.142;24.766;2024-02-26T11:13:41;21.35;;;13.85;;
80233;SDS011;69712;42.142;24.766;2024-02-26T11:16:13;19.33;;;12.88;;
80233;SDS011;69712;42.142;24.766;2024-02-26T11:18:39;20.08;;;12.48;;
80233;SDS011;69712;42.142;24.766;2024-02-26T11:21:06;18.67;;;12.55;;
80233;SDS011;69712;42.142;24.766;2024-02-26T11:23:33;19.75;;;13.05;;
80233;SDS011;69712;42.142;24.766;2024-02-26T11:26:05;23.40;;;13.47;;
80233;SDS011;69712;42.142;24.766;2024-02-26T11:28:36;19.92;;;13.32;;
80233;SDS011;69712;42.142;24.766;2024-02-26T11:31:06;19.05;;;13.77;;
80233;SDS011;69712;42.142;24.766;2024-02-26T11:33:32;20.05;;;14.80;;
80233;SDS011;69712;42.142;24.766;2024-02-26T11:36:01;26.35;;;13.55;;
80233;SDS011;69712;42.142;24.766;2024-02-26T11:38:32;23.17;;;14.40;;
80233;SDS011;69712;42.142;24.766;2024-02-26T11:40:58;24.65;;;15.10;;
80233;SDS011;69712;42.142;24.766;2024-02-26T11:46:27;21.33;;;14.48;;
80233;SDS011;69712;42.142;24.766;2024-02-26T11:49:03;19.67;;;14.20;;
80233;SDS011;69712;42.142;24.766;2024-02-26T11:51:50;22.98;;;16.10;;
80233;SDS011;69712;42.142;24.766;2024-02-26T11:57:38;22.08;;;16.23;;
80233;SDS011;69712;42.142;24.766;2024-02-26T12:00:12;26.23;;;15.88;;
80233;SDS011;69712;42.142;24.766;2024-02-26T12:02:45;23.42;;;16.52;;
80233;SDS011;69712;42.142;24.766;2024-02-26T12:05:15;26.15;;;16.30;;
80233;SDS011;69712;42.142;24.766;2024-02-26T12:07:55;23.95;;;15.82;;
80233;SDS011;69712;42.142;24.766;2024-02-26T12:10:41;27.67;;;16.20;;
80233;SDS011;69712;42.142;24.766;2024-02-26T12:13:09;23.98;;;16.05;;
80233;SDS011;69712;42.142;24.766;2024-02-26T12:15:41;21.65;;;15.43;;
80233;SDS011;69712;42.142;24.766;2024-02-26T12:18:09;21.65;;;15.38;;
80233;SDS011;69712;42.142;24.766;2024-02-26T12:20:40;22.50;;;15.65;;
80233;SDS011;69712;42.142;24.766;2024-02-26T12:23:06;20.33;;;15.73;;
80233;SDS011;69712;42.142;24.766;2024-02-26T12:25:32;25.30;;;15.85;;
80233;SDS011;69712;42.142;24.766;2024-02-26T12:27:59;21.95;;;14.52;;
80233;SDS011;69712;42.142;24.766;2024-02-26T12:30:25;24.52;;;14.13;;
80233;SDS011;69712;42.142;24.766;2024-02-26T12:32:54;23.05;;;14.93;;
80233;SDS011;69712;42.142;24.766;2024-02-26T12:35:25;19.15;;;13.57;;
80233;SDS011;69712;42.142;24.766;2024-02-26T12:37:55;19.67;;;13.70;;
80233;SDS011;69712;42.142;24.766;2024-02-26T12:40:21;19.10;;;13.50;;
80233;SDS011;69712;42.142;24.766;2024-02-26T12:42:47;19.98;;;12.73;;
80233;SDS011;69712;42.142;24.766;2024-02-26T12:45:13;23.40;;;14.45;;
80233;SDS011;69712;42.142;24.766;2024-02-26T12:47:41;21.63;;;13.73;;
80233;SDS011;69712;42.142;24.766;2024-02-26T12:50:08;19.33;;;12.45;;
80233;SDS011;69712;42.142;24.766;2024-02-26T12:52:35;20.63;;;12.93;;
80233;SDS011;69712;42.142;24.766;2024-02-26T12:55:06;17.30;;;12.40;;
80233;SDS011;69712;42.142;24.766;2024-02-26T12:57:35;16.02;;;11.60;;
80233;SDS011;69712;42.142;24.766;2024-02-26T13:00:03;20.45;;;11.80;;
80233;SDS011;69712;42.142;24.766;2024-02-26T13:02:31;20.88;;;14.05;;
80233;SDS011;69712;42.142;24.766;2024-02-26T13:04:57;20.30;;;14.27;;
80233;SDS011;69712;42.142;24.766;2024-02-26T13:07:26;24.15;;;13.90;;
80233;SDS011;69712;42.142;24.766;2024-02-26T13:09:52;23.35;;;14.40;;
80233;SDS011;69712;42.142;24.766;2024-02-26T13:12:18;27.77;;;13.65;;
80233;SDS011;69712;42.142;24.766;2024-02-26T13:14:44;21.08;;;14.45;;
80233;SDS011;69712;42.142;24.766;2024-02-26T13:17:10;22.00;;;12.82;;
80233;SDS011;69712;42.142;24.766;2024-02-26T13:19:36;17.80;;;12.25;;
80233;SDS011;69712;42.142;24.766;2024-02-26T13:22:05;14.70;;;11.77;;
80233;SDS011;69712;42.142;24.766;2024-02-26T13:24:32;19.45;;;12.40;;
80233;SDS011;69712;42.142;24.766;2024-02-26T13:26:59;20.80;;;12.77;;
80233;SDS011;69712;42.142;24.766;2024-02-26T13:29:25;17.20;;;11.52;;
80233;SDS011;69712;42.142;24.766;2024-02-26T13:31:57;19.27;;;12.18;;
80233;SDS011;69712;42.142;24.766;2024-02-26T13:34:27;17.95;;;11.88;;
80233;SDS011;69712;42.142;24.766;2024-02-26T13:36:53;16.15;;;11.02;;
80233;SDS011;69712;42.142;24.766;2024-02-26T13:39:26;17.67;;;13.27;;
80233;SDS011;69712;42.142;24.766;2024-02-26T13:41:53;24.27;;;13.80;;
80233;SDS011;69712;42.142;24.766;2024-02-26T13:44:19;21.48;;;13.68;;
80233;SDS011;69712;42.142;24.766;2024-02-26T13:46:49;21.17;;;13.20;;
80233;SDS011;69712;42.142;24.766;2024-02-26T13:49:15;19.85;;;13.60;;
80233;SDS011;69712;42.142;24.766;2024-02-26T13:51:41;21.65;;;12.70;;
80233;SDS011;69712;42.142;24.766;2024-02-26T13:54:07;21.75;;;13.18;;
80233;SDS011;69712;42.142;24.766;2024-02-26T13:56:34;22.83;;;13.70;;
80233;SDS011;69712;42.142;24.766;2024-02-26T13:59:01;18.60;;;12.98;;
80233;SDS011;69712;42.142;24.766;2024-02-26T14:01:26;18.48;;;13.40;;
80233;SDS011;69712;42.142;24.766;2024-02-26T14:03:53;19.02;;;12.85;;
80233;SDS011;69712;42.142;24.766;2024-02-26T14:06:22;21.05;;;13.75;;
80233;SDS011;69712;42.142;24.766;2024-02-26T14:08:48;20.63;;;12.65;;
80233;SDS011;69712;42.142;24.766;2024-02-26T14:11:14;23.58;;;12.95;;
80233;SDS011;69712;42.142;24.766;2024-02-26T14:13:40;18.75;;;13.80;;
80233;SDS011;69712;42.142;24.766;2024-02-26T14:16:05;24.83;;;13.40;;